Time;durP1;ratioP1;P1;durP2;ratioP2;P2;SDS_P1;SDS_P2;PMS_P1;PMS_P2;Temp;Humidity;BMP_temperature;BMP_pressure;BME280_temperature;BME280_humidity;BME280_pressure;Samples;Min_cycle;Max_cycle;Signal;HPM_P1;HPM_P2
2024/03/12 00:01:08;;;;;;;10.65;4.80;;;;;;;;;;10485571;28;20063;-57
2024/03/12 00:06:09;;;;;;;13.73;3.88;;;;;;;;;;10467271;28;20037;-59
2024/03/12 00:11:10;;;;;;;9.77;4.45;;;;;;;;;;10486458;28;20531;-61
2024/03/12 00:16:11;;;;;;;10.38;3.92;;;;;;;;;;10463894;28;20087;-62
2024/03/12 00:21:12;;;;;;;14.30;3.67;;;;;;;;;;10465585;28;20040;-62
2024/03/12 00:26:13;;;;;;;8.77;3.72;;;;;;;;;;10472825;28;20032;-58
2024/03/12 00:31:13;;;;;;;10.50;3.88;;;;;;;;;;10480303;28;20043;-58
2024/03/12 00:36:14;;;;;;;11.65;3.90;;;;;;;;;;10472190;28;20150;-57
2024/03/12 00:41:15;;;;;;;10.32;3.50;;;;;;;;;;10472942;28;20500;-57
2024/03/12 00:46:15;;;;;;;11.45;4.00;;;;;;;;;;10474912;28;20511;-58
2024/03/12 00:51:18;;;;;;;6.30;3.38;;;;;;;;;;10471526;28;20106;-59
2024/03/12 00:56:18;;;;;;;7.45;3.70;;;;;;;;;;10470819;28;20143;-59
2024/03/12 01:01:20;;;;;;;5.10;3.42;;;;;;;;;;10464730;28;20055;-58
2024/03/12 01:06:20;;;;;;;7.38;3.05;;;;;;;;;;10458089;28;20033;-58
2024/03/12 01:11:22;;;;;;;9.38;3.53;;;;;;;;;;10474388;28;20033;-58
2024/03/12 01:16:23;;;;;;;8.60;3.35;;;;;;;;;;10471501;28;20119;-61
2024/03/12 01:21:23;;;;;;;8.02;3.58;;;;;;;;;;10457564;28;20037;-59
2024/03/12 01:26:25;;;;;;;11.15;3.33;;;;;;;;;;10477186;28;20047;-60
2024/03/12 01:31:26;;;;;;;4.35;3.10;;;;;;;;;;10483034;28;20171;-60
2024/03/12 01:36:34;;;;;;;5.53;3.28;;;;;;;;;;10473852;28;20597;-60
2024/03/12 01:41:41;;;;;;;5.53;2.87;;;;;;;;;;10460636;28;20037;-59
2024/03/12 01:46:42;;;;;;;8.93;3.40;;;;;;;;;;10474564;28;21123;-59
2024/03/12 01:51:43;;;;;;;5.45;2.90;;;;;;;;;;10476054;28;20183;-58
2024/03/12 01:56:44;;;;;;;10.75;2.83;;;;;;;;;;10463310;28;20101;-58
2024/03/12 02:01:44;;;;;;;3.67;2.42;;;;;;;;;;10478577;28;20025;-58
2024/03/12 02:06:46;;;;;;;6.13;3.10;;;;;;;;;;10465500;28;20475;-59
2024/03/12 02:11:51;;;;;;;5.70;2.63;;;;;;;;;;10485275;28;20029;-59
2024/03/12 02:16:51;;;;;;;6.38;2.53;;;;;;;;;;10471178;28;20067;-59
2024/03/12 02:21:52;;;;;;;6.15;3.00;;;;;;;;;;10482276;28;20020;-59
2024/03/12 02:26:53;;;;;;;3.97;2.40;;;;;;;;;;10475748;28;20028;-60
2024/03/12 02:31:53;;;;;;;3.92;2.45;;;;;;;;;;10461836;28;20531;-60
2024/03/12 02:36:54;;;;;;;5.80;3.28;;;;;;;;;;10466606;28;20064;-59
2024/03/12 02:41:55;;;;;;;3.30;2.20;;;;;;;;;;10466106;28;20032;-64
2024/03/12 02:46:56;;;;;;;13.63;2.63;;;;;;;;;;10467401;28;20044;-62
2024/03/12 02:51:57;;;;;;;4.85;2.63;;;;;;;;;;10472894;28;20476;-60
2024/03/12 02:56:58;;;;;;;5.88;2.53;;;;;;;;;;10480889;28;20036;-62
2024/03/12 03:01:58;;;;;;;2.40;1.90;;;;;;;;;;10467177;28;20037;-61
2024/03/12 03:07:00;;;;;;;4.45;2.67;;;;;;;;;;10488081;28;20206;-61
2024/03/12 03:12:00;;;;;;;3.25;2.75;;;;;;;;;;10477601;28;20146;-60
2024/03/12 03:17:01;;;;;;;5.55;2.70;;;;;;;;;;10468004;28;20071;-61
2024/03/12 03:22:01;;;;;;;6.28;2.42;;;;;;;;;;10471714;28;20032;-61
2024/03/12 03:27:03;;;;;;;4.07;2.58;;;;;;;;;;10466175;28;20495;-59
2024/03/12 03:32:06;;;;;;;10.50;2.00;;;;;;;;;;10487711;28;20019;-61
2024/03/12 03:37:07;;;;;;;6.10;2.55;;;;;;;;;;10479228;28;20063;-59
2024/03/12 03:42:08;;;;;;;2.55;2.28;;;;;;;;;;10486604;28;20032;-59
2024/03/12 03:47:08;;;;;;;4.10;2.30;;;;;;;;;;10494835;28;20040;-60
2024/03/12 03:52:09;;;;;;;3.22;2.30;;;;;;;;;;10493778;28;20025;-59
2024/03/12 03:57:10;;;;;;;6.15;2.53;;;;;;;;;;10493445;28;20055;-58
2024/03/12 04:02:11;;;;;;;4.10;2.65;;;;;;;;;;10494299;28;20047;-62
2024/03/12 04:07:12;;;;;;;4.10;2.15;;;;;;;;;;10494007;28;20407;-62
2024/03/12 04:12:13;;;;;;;2.30;1.83;;;;;;;;;;10493123;28;20024;-58
2024/03/12 04:17:13;;;;;;;2.70;2.15;;;;;;;;;;10474582;28;20060;-62
2024/03/12 04:22:16;;;;;;;3.63;2.17;;;;;;;;;;10478522;28;20032;-59
2024/03/12 04:27:16;;;;;;;3.38;2.20;;;;;;;;;;10479664;28;20059;-59
2024/03/12 04:32:17;;;;;;;7.32;2.83;;;;;;;;;;10481350;28;20090;-60
2024/03/12 04:37:17;;;;;;;3.35;1.90;;;;;;;;;;10469524;28;20045;-59
2024/03/12 04:42:18;;;;;;;3.42;2.45;;;;;;;;;;10468022;28;20066;-58
2024/03/12 04:47:20;;;;;;;7.00;2.03;;;;;;;;;;10467648;28;20036;-60
2024/03/12 04:52:20;;;;;;;3.33;2.13;;;;;;;;;;10472704;28;20032;-61
2024/03/12 04:57:21;;;;;;;5.18;2.10;;;;;;;;;;10488526;28;20029;-59
2024/03/12 05:02:22;;;;;;;3.20;2.10;;;;;;;;;;10468812;28;20037;-60
2024/03/12 05:07:23;;;;;;;3.30;1.80;;;;;;;;;;10482303;28;20036;-60
2024/03/12 05:12:23;;;;;;;2.22;2.00;;;;;;;;;;10487009;28;20029;-60
2024/03/12 05:17:24;;;;;;;4.78;2.20;;;;;;;;;;10459507;28;20048;-59
2024/03/12 05:22:25;;;;;;;2.42;1.60;;;;;;;;;;10477014;28;20021;-59
2024/03/12 05:27:33;;;;;;;11.05;2.50;;;;;;;;;;10487365;28;20044;-60
2024/03/12 05:32:33;;;;;;;3.87;2.00;;;;;;;;;;10481826;28;20168;-60
2024/03/12 05:38:01;;;;;;;3.42;2.30;;;;;;;;;;10472698;28;20557;-61
2024/03/12 05:48:21;;;;;;;4.85;2.33;;;;;;;;;;10470789;28;20461;-58
2024/03/12 05:53:21;;;;;;;6.40;1.95;;;;;;;;;;10464986;28;20111;-58
2024/03/12 05:58:22;;;;;;;6.28;2.10;;;;;;;;;;10473037;28;20416;-58
2024/03/12 06:03:23;;;;;;;2.85;1.70;;;;;;;;;;10484844;28;20106;-58
2024/03/12 06:08:26;;;;;;;2.95;1.90;;;;;;;;;;10482204;28;20043;-58
2024/03/12 06:13:27;;;;;;;3.58;2.00;;;;;;;;;;10480189;28;20029;-57
2024/03/12 06:18:28;;;;;;;3.28;1.98;;;;;;;;;;10472979;28;20059;-58
2024/03/12 06:23:28;;;;;;;2.65;1.65;;;;;;;;;;10474730;28;20380;-58
2024/03/12 06:28:31;;;;;;;1.75;1.55;;;;;;;;;;10477990;28;20033;-58
2024/03/12 06:33:32;;;;;;;2.08;1.80;;;;;;;;;;10483371;28;20032;-57
2024/03/12 06:38:32;;;;;;;4.00;1.75;;;;;;;;;;10479137;28;20058;-58
2024/03/12 06:43:33;;;;;;;1.92;1.77;;;;;;;;;;10476558;28;20442;-62
2024/03/12 06:48:35;;;;;;;8.80;1.95;;;;;;;;;;10474142;28;20031;-58
2024/03/12 06:53:36;;;;;;;5.32;1.63;;;;;;;;;;10482141;28;20492;-58
2024/03/12 06:58:44;;;;;;;2.13;1.73;;;;;;;;;;10486806;28;20032;-57
2024/03/12 07:03:45;;;;;;;2.40;1.63;;;;;;;;;;10486249;28;20029;-58
2024/03/12 07:08:46;;;;;;;9.90;2.35;;;;;;;;;;10489352;28;20384;-59
2024/03/12 07:13:48;;;;;;;10.93;2.20;;;;;;;;;;10482623;28;20188;-60
2024/03/12 07:18:49;;;;;;;16.85;2.72;;;;;;;;;;10486072;28;20028;-59
2024/03/12 07:23:49;;;;;;;9.50;2.78;;;;;;;;;;10495624;28;20500;-59
2024/03/12 07:28:50;;;;;;;6.80;3.38;;;;;;;;;;10495434;28;20475;-59
2024/03/12 07:33:51;;;;;;;6.32;2.80;;;;;;;;;;10485903;28;20406;-59
2024/03/12 07:38:52;;;;;;;6.20;2.75;;;;;;;;;;10493736;28;20383;-59
2024/03/12 07:43:53;;;;;;;3.33;2.58;;;;;;;;;;10493686;28;20303;-59
2024/03/12 07:48:53;;;;;;;5.93;2.47;;;;;;;;;;10495172;28;20353;-59
2024/03/12 07:53:55;;;;;;;7.00;2.75;;;;;;;;;;10493467;28;20044;-59
2024/03/12 07:58:56;;;;;;;6.97;3.03;;;;;;;;;;10493325;28;20078;-59
2024/03/12 08:03:57;;;;;;;10.43;2.80;;;;;;;;;;10494794;28;20020;-63
2024/03/12 08:08:58;;;;;;;4.68;3.03;;;;;;;;;;10492781;28;20024;-59
2024/03/12 08:13:58;;;;;;;3.75;2.63;;;;;;;;;;10494291;28;20024;-63
2024/03/12 08:18:59;;;;;;;6.88;2.92;;;;;;;;;;10480855;28;20025;-65
2024/03/12 08:23:59;;;;;;;4.95;2.53;;;;;;;;;;10480041;28;20115;-67
2024/03/12 08:29:00;;;;;;;4.90;2.67;;;;;;;;;;10493282;28;20494;-59
2024/03/12 08:34:02;;;;;;;5.18;2.88;;;;;;;;;;10484095;28;20048;-59
2024/03/12 08:39:04;;;;;;;4.07;3.15;;;;;;;;;;10480648;28;20025;-59
2024/03/12 08:44:06;;;;;;;4.35;3.38;;;;;;;;;;10489504;28;20487;-59
2024/03/12 08:49:10;;;;;;;8.13;3.08;;;;;;;;;;10482811;28;20025;-60
2024/03/12 08:54:11;;;;;;;3.28;2.97;;;;;;;;;;10486858;28;20025;-59
2024/03/12 08:59:15;;;;;;;5.80;2.97;;;;;;;;;;10491705;28;20399;-60
2024/03/12 09:04:16;;;;;;;8.18;2.88;;;;;;;;;;10490296;28;20040;-60
2024/03/12 09:09:18;;;;;;;3.90;2.67;;;;;;;;;;10489890;28;20062;-59
2024/03/12 09:14:19;;;;;;;3.13;2.88;;;;;;;;;;10490615;28;20032;-60
2024/03/12 09:19:24;;;;;;;4.45;2.53;;;;;;;;;;10483029;28;20028;-61
2024/03/12 09:24:26;;;;;;;3.45;2.70;;;;;;;;;;10490501;28;20044;-61
2024/03/12 09:29:26;;;;;;;4.38;2.85;;;;;;;;;;10491642;28;20036;-65
2024/03/12 09:34:27;;;;;;;5.38;2.95;;;;;;;;;;10477998;28;20063;-62
2024/03/12 09:39:30;;;;;;;7.47;2.75;;;;;;;;;;10481430;28;20029;-62
2024/03/12 09:44:31;;;;;;;9.90;3.10;;;;;;;;;;10472192;28;20089;-63
2024/03/12 09:49:35;;;;;;;2.63;2.42;;;;;;;;;;10488362;28;20483;-59
2024/03/12 09:54:35;;;;;;;4.82;3.25;;;;;;;;;;10486973;28;20036;-60
2024/03/12 09:59:36;;;;;;;4.68;3.33;;;;;;;;;;10475226;28;20017;-59
2024/03/12 10:04:38;;;;;;;4.40;3.10;;;;;;;;;;10488278;28;20103;-60
2024/03/12 10:09:39;;;;;;;3.33;2.72;;;;;;;;;;10488905;28;20029;-59
2024/03/12 10:14:44;;;;;;;4.10;2.97;;;;;;;;;;10487508;28;20460;-59
2024/03/12 10:19:48;;;;;;;3.70;3.20;;;;;;;;;;10481039;28;20060;-60
2024/03/12 10:24:49;;;;;;;7.38;3.10;;;;;;;;;;10465022;28;20391;-61
2024/03/12 10:29:50;;;;;;;4.72;3.10;;;;;;;;;;10488913;28;20032;-60
2024/03/12 10:34:53;;;;;;;4.40;2.67;;;;;;;;;;10486898;28;20044;-60
2024/03/12 10:39:54;;;;;;;4.68;3.22;;;;;;;;;;10485832;28;20028;-59
2024/03/12 10:44:56;;;;;;;3.15;2.80;;;;;;;;;;10468449;28;20382;-61
2024/03/12 10:50:00;;;;;;;3.25;2.95;;;;;;;;;;10479741;28;20021;-61
2024/03/12 10:55:03;;;;;;;4.93;3.38;;;;;;;;;;10474230;28;20568;-61
2024/03/12 11:00:08;;;;;;;3.83;3.10;;;;;;;;;;10485638;28;20028;-62
2024/03/12 11:05:12;;;;;;;5.72;3.20;;;;;;;;;;10486242;28;20020;-59
2024/03/12 11:10:13;;;;;;;3.47;2.97;;;;;;;;;;10487037;28;20198;-62
2024/03/12 11:15:14;;;;;;;3.88;3.25;;;;;;;;;;10489257;28;20042;-60
2024/03/12 11:20:18;;;;;;;5.22;3.65;;;;;;;;;;10468403;28;20464;-60
2024/03/12 11:25:43;;;;;;;3.13;2.70;;;;;;;;;;10486986;28;20384;-62
2024/03/12 11:30:46;;;;;;;5.25;3.15;;;;;;;;;;10492162;28;20020;-60
2024/03/12 11:35:47;;;;;;;3.10;2.65;;;;;;;;;;10492163;28;20040;-61
2024/03/12 11:40:48;;;;;;;4.40;2.97;;;;;;;;;;10486862;28;20387;-59
2024/03/12 11:45:53;;;;;;;4.43;3.38;;;;;;;;;;10486304;28;20074;-60
2024/03/12 11:50:55;;;;;;;3.22;2.60;;;;;;;;;;10486488;28;20035;-59
2024/03/12 11:56:05;;;;;;;3.75;2.90;;;;;;;;;;10493282;28;20024;-59
2024/03/12 12:01:10;;;;;;;4.18;3.00;;;;;;;;;;10479492;28;20029;-59
2024/03/12 12:06:11;;;;;;;3.75;3.00;;;;;;;;;;10493439;28;20028;-59
2024/03/12 12:11:16;;;;;;;8.27;3.08;;;;;;;;;;10481136;28;20484;-59
2024/03/12 12:16:18;;;;;;;3.33;2.80;;;;;;;;;;10485035;28;20605;-59
2024/03/12 12:21:20;;;;;;;3.47;3.17;;;;;;;;;;10493300;28;20060;-59
2024/03/12 12:26:21;;;;;;;5.45;2.58;;;;;;;;;;10483603;28;20214;-59
2024/03/12 12:31:26;;;;;;;3.67;2.85;;;;;;;;;;10492057;28;20020;-60
2024/03/12 12:36:31;;;;;;;4.05;2.97;;;;;;;;;;10479296;28;20044;-59
2024/03/12 12:41:35;;;;;;;3.17;2.72;;;;;;;;;;10488508;28;20024;-59
2024/03/12 12:46:36;;;;;;;3.08;2.72;;;;;;;;;;10488050;28;20028;-61
2024/03/12 12:51:38;;;;;;;4.65;3.00;;;;;;;;;;10489189;28;20028;-62
2024/03/12 12:56:43;;;;;;;3.78;2.90;;;;;;;;;;10470829;28;20060;-61
2024/03/12 13:01:47;;;;;;;4.07;2.88;;;;;;;;;;10484066;28;20025;-59
2024/03/12 13:06:49;;;;;;;2.97;2.78;;;;;;;;;;10489103;28;20029;-59
2024/03/12 13:11:51;;;;;;;5.18;3.10;;;;;;;;;;10469795;28;20580;-60
2024/03/12 13:16:53;;;;;;;4.60;3.65;;;;;;;;;;10473928;28;20036;-59
2024/03/12 13:21:58;;;;;;;4.03;2.92;;;;;;;;;;10472777;28;20120;-59
2024/03/12 13:26:58;;;;;;;4.50;3.33;;;;;;;;;;10462260;28;20395;-59
2024/03/12 13:31:59;;;;;;;3.28;2.55;;;;;;;;;;10472642;28;20020;-60
2024/03/12 13:37:01;;;;;;;3.97;2.90;;;;;;;;;;10476861;28;20056;-59
2024/03/12 13:42:05;;;;;;;3.83;3.35;;;;;;;;;;10475698;28;20031;-58
2024/03/12 13:47:05;;;;;;;2.92;2.65;;;;;;;;;;10483288;28;20066;-59
2024/03/12 13:52:06;;;;;;;3.58;3.00;;;;;;;;;;10468184;28;20532;-60
2024/03/12 13:57:08;;;;;;;3.13;2.83;;;;;;;;;;10478738;28;20036;-60
2024/03/12 14:02:08;;;;;;;5.03;2.80;;;;;;;;;;10472237;28;20044;-59
2024/03/12 14:07:09;;;;;;;4.63;3.20;;;;;;;;;;10485316;28;20032;-59
2024/03/12 14:12:10;;;;;;;6.15;3.35;;;;;;;;;;10483799;28;20024;-59
2024/03/12 14:17:10;;;;;;;4.85;3.42;;;;;;;;;;10465731;28;20172;-60
2024/03/12 14:22:11;;;;;;;4.18;3.08;;;;;;;;;;10474203;28;20060;-59
2024/03/12 14:27:13;;;;;;;4.63;3.00;;;;;;;;;;10453204;28;20499;-59
2024/03/12 14:32:14;;;;;;;5.03;3.13;;;;;;;;;;10467696;28;20041;-59
2024/03/12 14:37:15;;;;;;;5.00;3.22;;;;;;;;;;10465873;28;20048;-59
2024/03/12 14:42:15;;;;;;;4.13;3.25;;;;;;;;;;10485917;28;20036;-59
2024/03/12 14:47:16;;;;;;;5.78;3.10;;;;;;;;;;10459100;28;20044;-59
2024/03/12 14:52:17;;;;;;;7.70;3.60;;;;;;;;;;10478341;28;20040;-60
2024/03/12 14:57:18;;;;;;;18.13;3.63;;;;;;;;;;10471459;28;20037;-59
2024/03/12 15:02:18;;;;;;;6.25;4.38;;;;;;;;;;10478349;28;20180;-58
2024/03/12 15:07:20;;;;;;;4.13;3.55;;;;;;;;;;10476280;28;20036;-58
2024/03/12 15:12:21;;;;;;;3.42;3.10;;;;;;;;;;10469055;28;20040;-59
2024/03/12 15:17:21;;;;;;;4.15;3.53;;;;;;;;;;10459563;28;20056;-59
2024/03/12 15:22:24;;;;;;;4.78;3.25;;;;;;;;;;10470367;28;20029;-58
2024/03/12 15:27:25;;;;;;;7.15;3.83;;;;;;;;;;10472259;28;20025;-58
2024/03/12 15:32:26;;;;;;;4.88;3.55;;;;;;;;;;10478848;28;20028;-58
2024/03/12 15:37:27;;;;;;;5.25;2.95;;;;;;;;;;10480576;28;20504;-58
2024/03/12 15:42:32;;;;;;;4.50;3.00;;;;;;;;;;10474897;28;20522;-59
2024/03/12 15:47:34;;;;;;;4.43;3.03;;;;;;;;;;10473332;28;20027;-58
2024/03/12 15:52:35;;;;;;;6.80;3.15;;;;;;;;;;10472681;28;20029;-58
2024/03/12 15:57:40;;;;;;;3.28;2.97;;;;;;;;;;10466723;28;20496;-59
2024/03/12 16:02:41;;;;;;;4.47;3.38;;;;;;;;;;10475796;28;20025;-59
2024/03/12 16:07:42;;;;;;;5.00;2.70;;;;;;;;;;10480272;28;20036;-59
2024/03/12 16:12:43;;;;;;;3.67;2.88;;;;;;;;;;10493401;28;20031;-59
2024/03/12 16:17:44;;;;;;;4.07;3.25;;;;;;;;;;10477825;28;20171;-59
2024/03/12 16:22:45;;;;;;;3.70;2.92;;;;;;;;;;10489754;28;20472;-59
2024/03/12 16:27:46;;;;;;;3.92;2.88;;;;;;;;;;10492860;28;20094;-59
2024/03/12 16:32:46;;;;;;;6.88;2.83;;;;;;;;;;10480195;28;20533;-58
2024/03/12 16:37:47;;;;;;;3.42;2.60;;;;;;;;;;10487607;28;20045;-59
2024/03/12 16:42:48;;;;;;;5.35;2.80;;;;;;;;;;10490130;28;20047;-59
2024/03/12 16:47:49;;;;;;;4.63;2.75;;;;;;;;;;10489837;28;20488;-59
2024/03/12 16:52:49;;;;;;;3.65;2.80;;;;;;;;;;10491728;28;20082;-59
2024/03/12 16:57:50;;;;;;;3.42;2.58;;;;;;;;;;10477931;28;20055;-59
2024/03/12 17:02:51;;;;;;;8.00;2.83;;;;;;;;;;10485713;28;20025;-59
2024/03/12 17:07:55;;;;;;;4.93;2.58;;;;;;;;;;10486484;28;20389;-59
2024/03/12 17:12:57;;;;;;;5.68;2.85;;;;;;;;;;10483542;28;20082;-58
2024/03/12 17:17:57;;;;;;;3.28;2.38;;;;;;;;;;10471310;28;20471;-59
2024/03/12 17:23:00;;;;;;;2.90;2.60;;;;;;;;;;10490197;28;20128;-59
2024/03/12 17:28:03;;;;;;;2.50;2.30;;;;;;;;;;10490063;28;20032;-59
2024/03/12 17:33:06;;;;;;;3.20;2.50;;;;;;;;;;10481661;28;20064;-58
2024/03/12 17:38:16;;;;;;;4.65;2.40;;;;;;;;;;10469558;28;20049;-59
2024/03/12 17:43:17;;;;;;;2.42;2.22;;;;;;;;;;10486039;28;20028;-59
2024/03/12 17:48:18;;;;;;;9.60;2.33;;;;;;;;;;10488018;28;20013;-59
2024/03/12 17:53:21;;;;;;;3.40;2.58;;;;;;;;;;10483616;28;20032;-59
2024/03/12 17:58:24;;;;;;;2.53;2.33;;;;;;;;;;10490077;28;20091;-59
2024/03/12 18:03:26;;;;;;;3.72;2.58;;;;;;;;;;10485257;28;20496;-59
2024/03/12 18:08:27;;;;;;;4.10;2.55;;;;;;;;;;10478812;28;20484;-60
2024/03/12 18:13:29;;;;;;;6.50;2.17;;;;;;;;;;10465191;28;20526;-59
2024/03/12 18:18:30;;;;;;;3.08;2.28;;;;;;;;;;10482939;28;20028;-59
2024/03/12 18:23:31;;;;;;;2.40;2.05;;;;;;;;;;10484108;28;20056;-60
2024/03/12 18:28:32;;;;;;;3.38;2.50;;;;;;;;;;10475230;28;20103;-59
2024/03/12 18:33:33;;;;;;;4.80;2.55;;;;;;;;;;10476338;28;20090;-59
2024/03/12 18:38:33;;;;;;;2.00;1.85;;;;;;;;;;10460273;28;20366;-59
2024/03/12 18:43:34;;;;;;;2.88;2.28;;;;;;;;;;10476062;28;20511;-59
2024/03/12 18:48:35;;;;;;;4.25;2.65;;;;;;;;;;10479678;28;20029;-59
2024/03/12 18:53:37;;;;;;;7.25;2.72;;;;;;;;;;10485399;28;20369;-59
2024/03/12 18:58:39;;;;;;;4.22;2.45;;;;;;;;;;10487186;28;20422;-60
2024/03/12 19:03:47;;;;;;;4.20;3.13;;;;;;;;;;10485901;28;20060;-59
2024/03/12 19:08:50;;;;;;;6.07;2.75;;;;;;;;;;10470553;28;20140;-59
2024/03/12 19:13:51;;;;;;;10.85;2.70;;;;;;;;;;10473212;28;20025;-59
2024/03/12 19:18:52;;;;;;;16.23;2.70;;;;;;;;;;10483256;28;20112;-59
2024/03/12 19:23:54;;;;;;;9.23;3.40;;;;;;;;;;10490718;28;20025;-60
2024/03/12 19:28:55;;;;;;;4.57;2.63;;;;;;;;;;10494547;28;20521;-59
2024/03/12 19:33:57;;;;;;;3.58;2.83;;;;;;;;;;10476495;28;20051;-59
2024/03/12 19:38:59;;;;;;;13.85;3.42;;;;;;;;;;10480397;28;20024;-59
2024/03/12 19:44:00;;;;;;;3.97;2.65;;;;;;;;;;10492012;28;20348;-59
2024/03/12 19:49:00;;;;;;;6.15;2.70;;;;;;;;;;10496347;28;20047;-59
2024/03/12 19:54:05;;;;;;;4.68;2.85;;;;;;;;;;10492296;28;20040;-59
2024/03/12 19:59:05;;;;;;;4.57;2.70;;;;;;;;;;10494199;28;20031;-60
2024/03/12 20:04:06;;;;;;;6.85;2.83;;;;;;;;;;10491636;28;20033;-59
2024/03/12 20:09:22;;;;;;;3.72;2.80;;;;;;;;;;10471278;28;20029;-59
2024/03/12 20:14:23;;;;;;;4.25;2.58;;;;;;;;;;10482777;28;20115;-59
2024/03/12 20:19:24;;;;;;;4.75;3.33;;;;;;;;;;10479199;28;20503;-59
2024/03/12 20:24:24;;;;;;;4.20;2.60;;;;;;;;;;10493035;28;20029;-59
2024/03/12 20:29:26;;;;;;;3.00;2.47;;;;;;;;;;10481850;28;20039;-59
2024/03/12 20:34:27;;;;;;;6.95;2.75;;;;;;;;;;10493423;28;20087;-59
2024/03/12 20:39:33;;;;;;;9.77;2.50;;;;;;;;;;10489461;28;20259;-59
2024/03/12 20:44:36;;;;;;;5.85;2.58;;;;;;;;;;10488824;28;20033;-59
2024/03/12 20:49:40;;;;;;;3.28;2.63;;;;;;;;;;10490840;28;20247;-59
2024/03/12 20:54:42;;;;;;;3.90;2.55;;;;;;;;;;10485378;28;20032;-59
2024/03/12 20:59:44;;;;;;;6.10;2.58;;;;;;;;;;10485352;28;20371;-59
2024/03/12 21:04:45;;;;;;;3.22;2.45;;;;;;;;;;10488426;28;20031;-59
2024/03/12 21:09:47;;;;;;;4.70;2.67;;;;;;;;;;10491557;28;20020;-59
2024/03/12 21:14:47;;;;;;;4.57;2.40;;;;;;;;;;10483681;28;20040;-59
2024/03/12 21:19:48;;;;;;;2.50;2.30;;;;;;;;;;10483043;28;20375;-59
2024/03/12 21:24:48;;;;;;;4.00;2.30;;;;;;;;;;10478467;28;20400;-59
2024/03/12 21:29:51;;;;;;;2.72;2.47;;;;;;;;;;10483914;28;20033;-59
2024/03/12 21:34:52;;;;;;;5.95;2.13;;;;;;;;;;10489821;28;20514;-59
2024/03/12 21:39:52;;;;;;;4.22;2.33;;;;;;;;;;10489809;28;20024;-59
2024/03/12 21:44:53;;;;;;;3.65;2.78;;;;;;;;;;10484477;28;20055;-59
2024/03/12 21:49:55;;;;;;;2.42;1.92;;;;;;;;;;10479905;28;20025;-59
2024/03/12 21:54:55;;;;;;;3.30;2.35;;;;;;;;;;10470180;28;20817;-59
2024/03/12 21:59:57;;;;;;;2.38;2.08;;;;;;;;;;10472603;28;20041;-61
2024/03/12 22:04:58;;;;;;;3.83;2.47;;;;;;;;;;10483809;28;20036;-61
2024/03/12 22:09:58;;;;;;;2.55;2.20;;;;;;;;;;10486455;28;20051;-60
2024/03/12 22:14:59;;;;;;;6.97;2.67;;;;;;;;;;10473825;28;20445;-61
2024/03/12 22:20:00;;;;;;;4.80;3.15;;;;;;;;;;10486939;28;20243;-61
2024/03/12 22:25:01;;;;;;;3.97;2.53;;;;;;;;;;10487333;28;20025;-61
2024/03/12 22:30:01;;;;;;;2.72;2.53;;;;;;;;;;10487366;28;20479;-61
2024/03/12 22:35:04;;;;;;;4.25;3.10;;;;;;;;;;10485857;28;20511;-61
2024/03/12 22:40:05;;;;;;;3.75;2.90;;;;;;;;;;10467062;28;20028;-60
2024/03/12 22:45:07;;;;;;;5.13;3.00;;;;;;;;;;10475211;28;20063;-60
2024/03/12 22:50:08;;;;;;;4.47;3.15;;;;;;;;;;10459674;28;20354;-61
2024/03/12 22:55:11;;;;;;;7.55;3.20;;;;;;;;;;10467771;28;20024;-61
2024/03/12 23:00:40;;;;;;;4.55;2.65;;;;;;;;;;10467852;28;20152;-62
2024/03/12 23:05:34;;;;;;;4.85;3.65;;;;;;;;;;10475704;28;20556;-62
2024/03/12 23:10:36;;;;;;;6.00;3.25;;;;;;;;;;10481005;28;20033;-62
2024/03/12 23:15:38;;;;;;;3.42;2.90;;;;;;;;;;10474312;28;20488;-61
2024/03/12 23:20:40;;;;;;;4.78;3.13;;;;;;;;;;10466867;28;20136;-61
2024/03/12 23:25:41;;;;;;;5.10;3.60;;;;;;;;;;10484011;28;20500;-61
2024/03/12 23:30:44;;;;;;;3.55;3.25;;;;;;;;;;10469182;28;20020;-61
2024/03/12 23:35:47;;;;;;;4.53;3.40;;;;;;;;;;10480272;28;20219;-62
2024/03/12 23:40:50;;;;;;;6.63;3.63;;;;;;;;;;10473618;28;20111;-61
2024/03/12 23:45:51;;;;;;;5.47;3.70;;;;;;;;;;10484552;28;20056;-60
2024/03/12 23:50:53;;;;;;;6.80;4.15;;;;;;;;;;10490132;28;20028;-60
2024/03/12 23:55:53;;;;;;;5.93;4.05;;;;;;;;;;10485506;28;20484;-61
